Time;durP1;ratioP1;P1;durP2;ratioP2;P2;SDS_P1;SDS_P2;PMS_P1;PMS_P2;Temp;Humidity;BMP_temperature;BMP_pressure;BME280_temperature;BME280_humidity;BME280_pressure;Samples;Min_cycle;Max_cycle;Signal;HPM_P1;HPM_P2
2022/03/02 00:00:51;;;;;;;;;;;;;;;4.63;76.80664;102854.5;;;;-80
2022/03/02 00:05:11;;;;;;;30;13.9;;;;;;;;;;;;;-80
2022/03/02 00:05:51;;;;;;;;;;;;;;;4.63;76.61035;102849.6;;;;-80
2022/03/02 00:10:51;;;;;;;;;;;;;;;4.63;76.75195;102843.8;;;;-81
2022/03/02 00:15:52;;;;;;;;;;;;;;;4.64;76.83008;102849;;;;-80
2022/03/02 00:20:51;;;;;;;;;;;;;;;4.64;76.85156;102844.3;;;;-80
2022/03/02 00:25:51;;;;;;;;;;;;;;;4.63;76.81738;102850.6;;;;-81
2022/03/02 00:30:51;;;;;;;;;;;;;;;4.63;76.69727;102852.3;;;;-81
2022/03/02 00:35:11;;;;;;;29.5;13.7;;;;;;;;;;;;;-81
2022/03/02 00:35:51;;;;;;;;;;;;;;;4.62;76.65234;102838;;;;-81
2022/03/02 00:40:51;;;;;;;;;;;;;;;4.62;77.02344;102839;;;;-79
2022/03/02 00:45:51;;;;;;;;;;;;;;;4.61;76.90137;102829.9;;;;-77
2022/03/02 00:50:52;;;;;;;;;;;;;;;4.6;76.83398;102827.7;;;;-81
2022/03/02 00:55:51;;;;;;;;;;;;;;;4.59;76.7998;102829.4;;;;-80
2022/03/02 01:00:51;;;;;;;;;;;;;;;4.59;76.82227;102828.3;;;;-80
2022/03/02 01:05:12;;;;;;;30.3;13.7;;;;;;;;;;;;;-81
2022/03/02 01:05:51;;;;;;;;;;;;;;;4.58;76.80762;102831.7;;;;-81
2022/03/02 01:10:51;;;;;;;;;;;;;;;4.58;76.77441;102830.9;;;;-80
2022/03/02 01:15:51;;;;;;;;;;;;;;;4.58;76.94922;102823.8;;;;-80
2022/03/02 01:20:54;;;;;;;;;;;;;;;4.58;76.82031;102824.8;;;;-78
2022/03/02 01:25:51;;;;;;;;;;;;;;;4.58;76.95117;102820.1;;;;-78
2022/03/02 01:30:51;;;;;;;;;;;;;;;4.58;77.06055;102818.2;;;;-80
2022/03/02 01:35:12;;;;;;;32.4;14.3;;;;;;;;;;;;;-81
2022/03/02 01:35:51;;;;;;;;;;;;;;;4.58;76.89648;102813.1;;;;-80
2022/03/02 01:40:51;;;;;;;;;;;;;;;4.58;76.85254;102809.5;;;;-78
2022/03/02 01:45:51;;;;;;;;;;;;;;;4.59;76.85449;102802.9;;;;-78
2022/03/02 01:50:51;;;;;;;;;;;;;;;4.58;76.84082;102804;;;;-78
2022/03/02 01:55:51;;;;;;;;;;;;;;;4.59;76.96191;102795.4;;;;-77
2022/03/02 02:00:51;;;;;;;;;;;;;;;4.57;76.84082;102794;;;;-78
2022/03/02 02:05:12;;;;;;;30.3;14.1;;;;;;;;;;;;;-79
2022/03/02 02:05:51;;;;;;;;;;;;;;;4.57;76.79688;102789.2;;;;-78
2022/03/02 02:10:51;;;;;;;;;;;;;;;4.57;76.79492;102782.7;;;;-77
2022/03/02 02:15:51;;;;;;;;;;;;;;;4.56;76.72949;102778.7;;;;-78
2022/03/02 02:20:54;;;;;;;;;;;;;;;4.56;76.70605;102775;;;;-78
2022/03/02 02:25:51;;;;;;;;;;;;;;;4.55;76.79297;102776.7;;;;-77
2022/03/02 02:30:52;;;;;;;;;;;;;;;4.55;76.85938;102777.1;;;;-78
2022/03/02 02:35:13;;;;;;;31;14.2;;;;;;;;;;;;;-77
2022/03/02 02:35:51;;;;;;;;;;;;;;;4.55;77.02246;102765;;;;-77
2022/03/02 02:40:51;;;;;;;;;;;;;;;4.55;76.81543;102752.9;;;;-78
2022/03/02 02:45:51;;;;;;;;;;;;;;;4.55;77.19727;102746.9;;;;-80
2022/03/02 02:50:51;;;;;;;;;;;;;;;4.54;76.87891;102743.2;;;;-79
2022/03/02 02:55:53;;;;;;;;;;;;;;;4.54;76.86621;102734;;;;-78
2022/03/02 03:00:52;;;;;;;;;;;;;;;4.54;76.86816;102735.7;;;;-77
2022/03/02 03:05:12;;;;;;;31.8;14.5;;;;;;;;;;;;;-76
2022/03/02 03:05:52;;;;;;;;;;;;;;;4.54;76.87891;102731.3;;;;-76
2022/03/02 03:10:52;;;;;;;;;;;;;;;4.54;76.75879;102727.2;;;;-77
2022/03/02 03:15:51;;;;;;;;;;;;;;;4.54;76.79004;102722;;;;-77
2022/03/02 03:20:51;;;;;;;;;;;;;;;4.53;76.74512;102718.7;;;;-77
2022/03/02 03:25:51;;;;;;;;;;;;;;;4.53;76.78906;102719.1;;;;-78
2022/03/02 03:30:51;;;;;;;;;;;;;;;4.51;76.85254;102710.3;;;;-78
2022/03/02 03:35:13;;;;;;;30.2;14.7;;;;;;;;;;;;;-78
2022/03/02 03:35:51;;;;;;;;;;;;;;;4.49;77.03516;102705;;;;-78
2022/03/02 03:40:51;;;;;;;;;;;;;;;4.48;77.16309;102704.5;;;;-77
2022/03/02 03:45:55;;;;;;;;;;;;;;;4.47;77.27051;102705.2;;;;-77
2022/03/02 03:50:51;;;;;;;;;;;;;;;4.46;77.37598;102697.1;;;;-78
2022/03/02 03:55:51;;;;;;;;;;;;;;;4.46;77.32129;102701.4;;;;-78
2022/03/02 04:00:51;;;;;;;;;;;;;;;4.45;77.40918;102697.6;;;;-78
2022/03/02 04:05:13;;;;;;;34.2;14.7;;;;;;;;;;;;;-78
2022/03/02 04:05:51;;;;;;;;;;;;;;;4.44;77.42871;102694.9;;;;-78
2022/03/02 04:10:51;;;;;;;;;;;;;;;4.44;77.46191;102691.3;;;;-81
2022/03/02 04:15:51;;;;;;;;;;;;;;;4.43;77.3623;102686.7;;;;-81
2022/03/02 04:20:52;;;;;;;;;;;;;;;4.44;77.75488;102685.2;;;;-81
2022/03/02 04:25:51;;;;;;;;;;;;;;;4.44;77.50391;102679.3;;;;-81
2022/03/02 04:30:52;;;;;;;;;;;;;;;4.43;77.78613;102675.1;;;;-81
2022/03/02 04:35:14;;;;;;;33.6;15;;;;;;;;;;;;;-81
2022/03/02 04:35:51;;;;;;;;;;;;;;;4.42;77.73145;102675;;;;-81
2022/03/02 04:40:51;;;;;;;;;;;;;;;4.42;77.83008;102671.2;;;;-80
2022/03/02 04:45:55;;;;;;;;;;;;;;;4.42;77.85156;102674.5;;;;-79
2022/03/02 04:50:51;;;;;;;;;;;;;;;4.42;77.91699;102668.3;;;;-78
2022/03/02 04:55:52;;;;;;;;;;;;;;;4.42;78.01367;102664.1;;;;-77
2022/03/02 05:00:51;;;;;;;;;;;;;;;4.41;77.81738;102657.7;;;;-78
2022/03/02 05:05:14;;;;;;;34.9;14.8;;;;;;;;;;;;;-81
2022/03/02 05:05:51;;;;;;;;;;;;;;;4.41;77.88086;102646.5;;;;-80
2022/03/02 05:10:51;;;;;;;;;;;;;;;4.38;77.6582;102643.5;;;;-81
2022/03/02 05:15:51;;;;;;;;;;;;;;;4.36;77.63281;102644;;;;-80
2022/03/02 05:20:51;;;;;;;;;;;;;;;4.33;77.58203;102643.7;;;;-80
2022/03/02 05:25:53;;;;;;;;;;;;;;;4.31;77.68652;102646.8;;;;-80
2022/03/02 05:30:51;;;;;;;;;;;;;;;4.27;77.6377;102644.2;;;;-81
2022/03/02 05:35:14;;;;;;;31.5;14.8;;;;;;;;;;;;;-79
2022/03/02 05:35:51;;;;;;;;;;;;;;;4.25;77.67871;102647.7;;;;-80
2022/03/02 05:40:51;;;;;;;;;;;;;;;4.22;77.62988;102645.1;;;;-80
2022/03/02 05:45:51;;;;;;;;;;;;;;;4.21;77.69238;102645.4;;;;-82
2022/03/02 05:50:51;;;;;;;;;;;;;;;4.19;77.78711;102642.6;;;;-80
2022/03/02 05:55:57;;;;;;;;;;;;;;;4.18;77.89453;102646.3;;;;-80
2022/03/02 06:00:51;;;;;;;;;;;;;;;4.17;77.94727;102642.6;;;;-81
2022/03/02 06:05:14;;;;;;;34.2;15.1;;;;;;;;;;;;;-81
2022/03/02 06:05:53;;;;;;;;;;;;;;;4.16;77.88965;102651;;;;-81
2022/03/02 06:10:51;;;;;;;;;;;;;;;4.14;77.82227;102646.5;;;;-81
2022/03/02 06:15:51;;;;;;;;;;;;;;;4.09;77.80176;102655;;;;-80
2022/03/02 06:20:59;;;;;;;;;;;;;;;4.03;78.00781;102650.2;;;;-80
2022/03/02 06:25:51;;;;;;;;;;;;;;;3.97;78.10742;102656.4;;;;-80
2022/03/02 06:30:51;;;;;;;;;;;;;;;3.88;78.23242;102659.7;;;;-81
2022/03/02 06:35:14;;;;;;;31.5;13.5;;;;;;;;;;;;;-80
2022/03/02 06:35:54;;;;;;;;;;;;;;;3.82;78.31934;102662.2;;;;-80
2022/03/02 06:40:58;;;;;;;;;;;;;;;3.75;78.30762;102658.4;;;;-81
2022/03/02 06:45:59;;;;;;;;;;;;;;;3.7;78.36328;102660.3;;;;-80
2022/03/02 06:50:54;;;;;;;;;;;;;;;3.65;78.35254;102663.2;;;;-79
2022/03/02 06:55:51;;;;;;;;;;;;;;;3.62;78.43555;102662.7;;;;-78
2022/03/02 07:00:55;;;;;;;;;;;;;;;3.59;78.47266;102657.2;;;;-80
2022/03/02 07:05:14;;;;;;;31.9;14.6;;;;;;;;;;;;;-81
2022/03/02 07:05:54;;;;;;;;;;;;;;;3.56;78.52148;102658.5;;;;-81
2022/03/02 07:10:54;;;;;;;;;;;;;;;3.55;78.82617;102663.7;;;;-81
2022/03/02 07:15:52;;;;;;;;;;;;;;;3.57;78.79688;102671.2;;;;-81
2022/03/02 07:20:54;;;;;;;;;;;;;;;3.63;78.70898;102673.7;;;;-81
2022/03/02 07:25:53;;;;;;;;;;;;;;;3.68;78.68652;102675;;;;-80
2022/03/02 07:30:52;;;;;;;;;;;;;;;3.74;78.59863;102673.9;;;;-78
2022/03/02 07:35:13;;;;;;;34.9;14.9;;;;;;;;;;;;;-77
2022/03/02 07:35:52;;;;;;;;;;;;;;;3.83;78.74609;102676.8;;;;-77
2022/03/02 07:40:52;;;;;;;;;;;;;;;3.94;78.8877;102682.8;;;;-78
2022/03/02 07:45:52;;;;;;;;;;;;;;;4.04;78.57715;102689.3;;;;-79
2022/03/02 07:50:52;;;;;;;;;;;;;;;4.14;78.33301;102689.9;;;;-78
2022/03/02 07:55:53;;;;;;;;;;;;;;;4.24;78.2002;102689.7;;;;-79
2022/03/02 08:00:52;;;;;;;;;;;;;;;4.38;78.59668;102686.7;;;;-77
2022/03/02 08:05:14;;;;;;;35.7;15.3;;;;;;;;;;;;;-77
2022/03/02 08:05:55;;;;;;;;;;;;;;;4.56;78.51855;102688.3;;;;-77
2022/03/02 08:10:51;;;;;;;;;;;;;;;4.76;78.42578;102687.6;;;;-78
2022/03/02 08:15:54;;;;;;;;;;;;;;;4.94;78.21875;102691.8;;;;-78
2022/03/02 08:20:56;;;;;;;;;;;;;;;5.2;78.05664;102685.6;;;;-78
2022/03/02 08:25:59;;;;;;;;;;;;;;;5.5;78.14355;102685.8;;;;-77
2022/03/02 08:30:52;;;;;;;;;;;;;;;5.83;78.21387;102689.4;;;;-79
2022/03/02 08:35:15;;;;;;;38.5;16.8;;;;;;;;;;;;;-78
2022/03/02 08:35:53;;;;;;;;;;;;;;;6.23;77.80566;102688.8;;;;-78
2022/03/02 08:40:51;;;;;;;;;;;;;;;6.52;76.99023;102677.8;;;;-81
2022/03/02 08:45:54;;;;;;;;;;;;;;;6.86;76.27148;102669.7;;;;-81
2022/03/02 08:50:53;;;;;;;;;;;;;;;7.12;76.19531;102666.8;;;;-81
2022/03/02 08:55:51;;;;;;;;;;;;;;;7.38;75.88965;102666.3;;;;-81
2022/03/02 09:05:15;;;;;;;37;17.2;;;;;;;;;;;;;-78
2022/03/02 09:05:52;;;;;;;;;;;;;;;7.91;74.13086;102664.2;;;;-78
2022/03/02 09:10:51;;;;;;;;;;;;;;;8.31;72.9209;102657.8;;;;-79
2022/03/02 09:15:51;;;;;;;;;;;;;;;8.54;72.56152;102650.8;;;;-78
2022/03/02 09:20:54;;;;;;;;;;;;;;;8.79;71.22168;102643.5;;;;-79
2022/03/02 09:25:54;;;;;;;;;;;;;;;8.99;70.9248;102640.3;;;;-79
2022/03/02 09:30:52;;;;;;;;;;;;;;;9.18;69.70508;102637.4;;;;-80
2022/03/02 09:35:18;;;;;;;33.9;16.4;;;;;;;;;;;;;-81
2022/03/02 09:35:59;;;;;;;;;;;;;;;9.38;69.26172;102637.5;;;;-81
2022/03/02 09:40:54;;;;;;;;;;;;;;;9.55;68.66699;102634.8;;;;-80
2022/03/02 09:45:54;;;;;;;;;;;;;;;9.8;67.98535;102630.5;;;;-80
2022/03/02 09:55:53;;;;;;;;;;;;;;;10.17;66.12402;102627.9;;;;-80
2022/03/02 10:00:52;;;;;;;;;;;;;;;10.33;65.19336;102631.2;;;;-80
2022/03/02 10:05:20;;;;;;;32;15.5;;;;;;;;;;;;;-80
2022/03/02 10:05:54;;;;;;;;;;;;;;;10.37;65.07715;102616.1;;;;-78
2022/03/02 10:10:55;;;;;;;;;;;;;;;10.49;65.13867;102624.6;;;;-79
2022/03/02 10:15:56;;;;;;;;;;;;;;;10.71;64.33789;102629.3;;;;-81
2022/03/02 10:21:03;;;;;;;;;;;;;;;10.84;63.8457;102620.3;;;;-83
2022/03/02 10:35:02;;;;;;;;;;;;;;;11.11;64.14063;102610.4;;;;-83
2022/03/02 10:35:17;;;;;;;30.9;15.5;;;;;;;;;;;;;-81
2022/03/02 10:40:06;;;;;;;;;;;;;;;11.3;63.90137;102600.9;;;;-84
2022/03/02 10:45:07;;;;;;;;;;;;;;;11.47;63.65918;102598.9;;;;-84
2022/03/02 10:50:03;;;;;;;;;;;;;;;11.57;63.22754;102596.5;;;;-85
2022/03/02 10:55:00;;;;;;;;;;;;;;;11.68;63.75684;102595.2;;;;-85
2022/03/02 11:00:05;;;;;;;;;;;;;;;11.8;63.01563;102590.1;;;;-85
2022/03/02 11:05:23;;;;;;;;;;;;;;;11.86;64.89648;102594.1;;;;-84
2022/03/02 11:05:49;;;;;;;29.1;15.5;;;;;;;;;;;;;-84
2022/03/02 11:10:03;;;;;;;;;;;;;;;11.93;63.72559;102592;;;;-83
2022/03/02 11:15:07;;;;;;;;;;;;;;;12.07;65.41797;102587.2;;;;-82
2022/03/02 11:20:08;;;;;;;;;;;;;;;12.18;64.375;102592.6;;;;-82
2022/03/02 11:25:01;;;;;;;;;;;;;;;12.32;66.04785;102588.3;;;;-82
2022/03/02 11:30:10;;;;;;;;;;;;;;;12.37;64.76172;102577.9;;;;-85
2022/03/02 11:35:10;;;;;;;;;;;;;;;12.52;69.66016;102574.4;;;;-85
2022/03/02 11:35:42;;;;;;;30;15.9;;;;;;;;;;;;;-85
2022/03/02 12:05:06;;;;;;;;;;;;;;;13.38;76.45703;102532.3;;;;-83
2022/03/02 12:18:28;;;;;;;;;;;;;;;13.68;77.64941;102522.8;;;;-82
2022/03/02 12:35:43;;;;;;;;;;;;;;;;;;;;;
2022/03/02 12:36:47;;;;;;;;;;;;;;;13.96;78.81445;102501.8;;;;-84
2022/03/02 12:41:50;;;;;;;;;;;;;;;13.99;78.66309;102489.9;;;;-84
2022/03/02 12:47:13;;;;;;;;;;;;;;;13.97;77.99023;102484.3;;;;-82
2022/03/02 12:51:53;;;;;;;;;;;;;;;13.99;77.98242;102484.5;;;;-83
2022/03/02 12:57:05;;;;;;;;;;;;;;;;;;;;;
2022/03/02 13:01:48;;;;;;;;;;;;;;;13.99;78.80859;102471.6;;;;-84
2022/03/02 13:05:30;;;;;;;29.7;16.8;;;;;;;;;;;;;-85
2022/03/02 13:07:03;;;;;;;;;;;;;;;14.03;78.42285;102466.8;;;;-83
2022/03/02 13:11:54;;;;;;;;;;;;;;;14.06;78.38477;102464.5;;;;-83
2022/03/02 13:16:50;;;;;;;;;;;;;;;14.09;78.74805;102461.7;;;;-83
2022/03/02 13:22:08;;;;;;;;;;;;;;;14.1;78.63867;102463;;;;-85
2022/03/02 13:27:15;;;;;;;;;;;;;;;;;;;;;
2022/03/02 13:32:08;;;;;;;;;;;;;;;14.15;78.75977;102457.3;;;;-84
2022/03/02 13:35:45;;;;;;;28.1;16.3;;;;;;;;;;;;;-82
2022/03/02 13:37:00;;;;;;;;;;;;;;;14.12;77.9834;102451.8;;;;-83
2022/03/02 13:42:21;;;;;;;;;;;;;;;14.02;76.68164;102455.4;;;;-82
2022/03/02 13:52:01;;;;;;;;;;;;;;;13.8;77.23535;102446.9;;;;-83
2022/03/02 13:59:41;;;;;;;;;;;;;;;13.69;77.88379;102434.8;;;;-83
2022/03/02 14:04:38;;;;;;;;;;;;;;;13.61;77.19141;102428.4;;;;-83
2022/03/02 14:05:50;;;;;;;26.9;15.2;;;;;;;;;;;;;-82
2022/03/02 14:13:03;;;;;;;;;;;;;;;13.44;75.43262;102418.6;;;;-83
2022/03/02 14:18:10;;;;;;;;;;;;;;;13.29;75.00488;102410.4;;;;-83
2022/03/02 14:23:05;;;;;;;;;;;;;;;13.15;74.82422;102406.5;;;;-84
2022/03/02 14:28:15;;;;;;;;;;;;;;;12.99;74.32031;102391.4;;;;-83
2022/03/02 14:33:07;;;;;;;;;;;;;;;12.83;73.85645;102389.2;;;;-84
2022/03/02 14:38:01;;;;;;;;;;;;;;;12.63;73.97852;102383.7;;;;-83
2022/03/02 14:48:20;;;;;;;;;;;;;;;12.44;74.2041;102383.9;;;;-81
2022/03/02 14:53:06;;;;;;;;;;;;;;;12.37;74.23633;102373.7;;;;-82
2022/03/02 14:58:09;;;;;;;;;;;;;;;12.29;73.54297;102370.5;;;;-82
2022/03/02 15:03:11;;;;;;;;;;;;;;;12.16;72.66504;102364.4;;;;-81
2022/03/02 15:05:33;;;;;;;25.2;13.7;;;;;;;;;;;;;-79
2022/03/02 15:08:01;;;;;;;;;;;;;;;12.05;72.44629;102352.8;;;;-81
2022/03/02 15:18:01;;;;;;;;;;;;;;;11.82;72.74121;102345.1;;;;-82
2022/03/02 15:23:02;;;;;;;;;;;;;;;11.74;72.51758;102334.1;;;;-81
2022/03/02 15:28:10;;;;;;;;;;;;;;;11.67;72.03906;102328.5;;;;-84
2022/03/02 15:33:05;;;;;;;;;;;;;;;11.61;71.77246;102323;;;;-82
2022/03/02 15:35:35;;;;;;;25.9;14.1;;;;;;;;;;;;;-83
2022/03/02 15:38:00;;;;;;;;;;;;;;;11.52;71.48145;102322;;;;-83
2022/03/02 15:43:05;;;;;;;;;;;;;;;11.44;71.17871;102317.7;;;;-78
2022/03/02 15:48:22;;;;;;;;;;;;;;;11.36;70.06445;102314.5;;;;-83
2022/03/02 15:53:06;;;;;;;;;;;;;;;11.28;70.46289;102307.4;;;;-82
2022/03/02 15:58:14;;;;;;;;;;;;;;;11.21;70.28516;102309.7;;;;-84
2022/03/02 16:03:03;;;;;;;;;;;;;;;11.12;69.99219;102305;;;;-85
2022/03/02 16:05:37;;;;;;;25;12.5;;;;;;;;;;;;;-83
2022/03/02 16:08:14;;;;;;;;;;;;;;;11.01;69.75293;102304.7;;;;-82
2022/03/02 16:13:03;;;;;;;;;;;;;;;10.97;69.37988;102300.4;;;;-83
2022/03/02 16:18:02;;;;;;;;;;;;;;;10.92;68.69336;102290;;;;-83
2022/03/02 16:23:16;;;;;;;;;;;;;;;10.76;68.35645;102290.5;;;;-84
2022/03/02 16:28:12;;;;;;;;;;;;;;;10.55;68.3125;102295.9;;;;-82
2022/03/02 16:33:24;;;;;;;;;;;;;;;;;;;;;
2022/03/02 16:35:49;;;;;;;24.5;11.7;;;;;;;;;;;;;-83
2022/03/02 16:38:02;;;;;;;;;;;;;;;10.1;68.68652;102284;;;;-82
2022/03/02 16:43:12;;;;;;;;;;;;;;;9.91;69.06836;102285.5;;;;-84
2022/03/02 16:48:14;;;;;;;;;;;;;;;9.74;69.22852;102283.7;;;;-85
2022/03/02 16:53:09;;;;;;;;;;;;;;;9.56;69.36719;102292.6;;;;-84
2022/03/02 16:58:14;;;;;;;;;;;;;;;9.38;69.35059;102289.2;;;;-84
2022/03/02 17:03:20;;;;;;;;;;;;;;;9.21;69.88672;102290.2;;;;-81
2022/03/02 17:05:52;;;;;;;24;11.3;;;;;;;;;;;;;-83
2022/03/02 17:08:06;;;;;;;;;;;;;;;9.03;69.78027;102291.3;;;;-84
2022/03/02 17:13:05;;;;;;;;;;;;;;;8.85;70.38281;102291;;;;-84
2022/03/02 17:17:59;;;;;;;;;;;;;;;8.68;69.75781;102290.1;;;;-83
2022/03/02 17:23:00;;;;;;;;;;;;;;;8.52;70.01855;102297.1;;;;-84
2022/03/02 17:33:46;;;;;;;;;;;;;;;8.18;70.16309;102292;;;;-83
2022/03/02 17:35:41;;;;;;;22.3;10.9;;;;;;;;;;;;;-82
2022/03/02 17:38:47;;;;;;;;;;;;;;;8.03;71.10938;102293.9;;;;-84
2022/03/02 17:43:47;;;;;;;;;;;;;;;7.89;70.42383;102293.2;;;;-83
2022/03/02 17:48:42;;;;;;;;;;;;;;;7.74;70.35645;102298;;;;-83
2022/03/02 17:53:43;;;;;;;;;;;;;;;7.56;70.43652;102292.3;;;;-84
2022/03/02 17:58:43;;;;;;;;;;;;;;;7.45;70.5957;102290.1;;;;-83
2022/03/02 18:03:46;;;;;;;;;;;;;;;7.33;70.6875;102292.7;;;;-83
2022/03/02 18:05:39;;;;;;;20.4;9.5;;;;;;;;;;;;;-82
2022/03/02 18:08:49;;;;;;;;;;;;;;;7.21;70.71094;102301.1;;;;-82
2022/03/02 18:13:49;;;;;;;;;;;;;;;7.09;71.11035;102311;;;;-82
2022/03/02 18:18:58;;;;;;;;;;;;;;;6.96;71.05469;102300.3;;;;-82
2022/03/02 18:23:46;;;;;;;;;;;;;;;6.83;71.44043;102291.9;;;;-81
2022/03/02 18:33:44;;;;;;;;;;;;;;;6.62;71.72461;102301.9;;;;-83
2022/03/02 18:35:51;;;;;;;19.7;9.2;;;;;;;;;;;;;-82
2022/03/02 18:38:44;;;;;;;;;;;;;;;6.5;71.91211;102296.7;;;;-84
2022/03/02 18:43:43;;;;;;;;;;;;;;;6.4;71.86328;102293.5;;;;-81
2022/03/02 18:48:46;;;;;;;;;;;;;;;6.29;72.13184;102288.7;;;;-83
2022/03/02 18:53:59;;;;;;;;;;;;;;;;;;;;;
2022/03/02 18:58:43;;;;;;;;;;;;;;;6.1;72.35059;102284.5;;;;-83
2022/03/02 19:03:46;;;;;;;;;;;;;;;6.01;72.47852;102286.8;;;;-83
2022/03/02 19:05:47;;;;;;;19.5;8.7;;;;;;;;;;;;;-83
2022/03/02 19:08:46;;;;;;;;;;;;;;;5.9;72.57129;102288.5;;;;-83
2022/03/02 19:13:46;;;;;;;;;;;;;;;5.81;72.70801;102287;;;;-83
2022/03/02 19:27:45;;;;;;;;;;;;;;;5.54;72.9043;102285;;;;-83
2022/03/02 19:32:22;;;;;;;;;;;;;;;5.46;73.0332;102284.8;;;;-83
2022/03/02 19:35:43;;;;;;;19.6;8.6;;;;;;;;;;;;;-84
2022/03/02 19:53:04;;;;;;;;;;;;;;;5.11;73.44531;102290.3;;;;-82
2022/03/02 20:02:52;;;;;;;;;;;;;;;4.98;73.49902;102289.1;;;;-84
2022/03/02 20:06:01;;;;;;;16.7;8;;;;;;;;;;;;;-83
2022/03/02 20:07:53;;;;;;;;;;;;;;;4.9;73.47559;102289.2;;;;-84
2022/03/02 20:12:44;;;;;;;;;;;;;;;4.84;73.49805;102286;;;;-83
2022/03/02 20:17:51;;;;;;;;;;;;;;;4.77;73.37598;102283.6;;;;-85
2022/03/02 20:22:43;;;;;;;;;;;;;;;4.72;73.54492;102285.7;;;;-82
2022/03/02 20:27:54;;;;;;;;;;;;;;;4.67;73.28418;102284.6;;;;-82
2022/03/02 20:33:00;;;;;;;;;;;;;;;4.61;73.30762;102282.8;;;;-84
2022/03/02 20:35:47;;;;;;;18.3;7.7;;;;;;;;;;;;;-82
2022/03/02 20:37:56;;;;;;;;;;;;;;;4.56;73.375;102286.2;;;;-82
2022/03/02 20:46:16;;;;;;;;;;;;;;;4.47;73.43555;102284.8;;;;-82
2022/03/02 20:51:14;;;;;;;;;;;;;;;4.43;73.57031;102286.2;;;;-82
2022/03/02 21:01:24;;;;;;;;;;;;;;;4.31;73.41992;102293.2;;;;-84
2022/03/02 21:05:45;;;;;;;16.2;7.4;;;;;;;;;;;;;-83
2022/03/02 21:06:19;;;;;;;;;;;;;;;4.26;73.49707;102285.7;;;;-83
2022/03/02 21:11:15;;;;;;;;;;;;;;;4.21;73.63086;102286.1;;;;-83
2022/03/02 21:16:14;;;;;;;;;;;;;;;4.16;73.67578;102288;;;;-82
2022/03/02 21:21:15;;;;;;;;;;;;;;;4.1;73.76563;102280.9;;;;-83
2022/03/02 21:26:16;;;;;;;;;;;;;;;4.06;73.76855;102285;;;;-83
2022/03/02 21:31:14;;;;;;;;;;;;;;;4.01;73.80469;102274.8;;;;-84
2022/03/02 21:35:44;;;;;;;18.9;7.4;;;;;;;;;;;;;-82
2022/03/02 21:36:14;;;;;;;;;;;;;;;3.96;73.71875;102280.1;;;;-84
2022/03/02 21:41:13;;;;;;;;;;;;;;;3.89;73.69824;102273.4;;;;-83
2022/03/02 21:46:18;;;;;;;;;;;;;;;3.83;73.79492;102264.9;;;;-83
2022/03/02 21:51:19;;;;;;;;;;;;;;;3.79;73.87598;102262.5;;;;-83
2022/03/02 21:56:14;;;;;;;;;;;;;;;3.74;73.76953;102257.7;;;;-82
2022/03/02 22:01:14;;;;;;;;;;;;;;;3.7;73.79492;102256.5;;;;-81
2022/03/02 22:05:40;;;;;;;19.3;7.7;;;;;;;;;;;;;-82
2022/03/02 22:06:13;;;;;;;;;;;;;;;3.66;73.81055;102247.8;;;;-84
2022/03/02 22:11:14;;;;;;;;;;;;;;;3.62;73.85742;102246.8;;;;-82
2022/03/02 22:16:13;;;;;;;;;;;;;;;3.58;73.86133;102248.2;;;;-82
2022/03/02 22:21:16;;;;;;;;;;;;;;;3.55;73.78125;102247.7;;;;-83
2022/03/02 22:26:18;;;;;;;;;;;;;;;3.52;73.7959;102245.6;;;;-84
2022/03/02 22:31:13;;;;;;;;;;;;;;;3.53;73.88672;102245.4;;;;-83
2022/03/02 22:35:42;;;;;;;16.8;7.3;;;;;;;;;;;;;-82
2022/03/02 22:36:15;;;;;;;;;;;;;;;3.48;73.59375;102249.6;;;;-83
2022/03/02 22:41:14;;;;;;;;;;;;;;;3.45;73.59961;102250.9;;;;-84
2022/03/02 22:46:20;;;;;;;;;;;;;;;3.44;73.5332;102244.8;;;;-82
2022/03/02 22:51:14;;;;;;;;;;;;;;;3.39;73.48926;102246.8;;;;-83
2022/03/02 22:56:19;;;;;;;;;;;;;;;3.36;73.64844;102247;;;;-83
2022/03/02 23:01:22;;;;;;;;;;;;;;;3.32;73.63086;102248.1;;;;-83
2022/03/02 23:16:13;;;;;;;;;;;;;;;3.22;73.79004;102246.2;;;;-84
2022/03/02 23:21:13;;;;;;;;;;;;;;;3.19;73.72949;102246;;;;-85
2022/03/02 23:26:13;;;;;;;;;;;;;;;3.14;73.72168;102245.4;;;;-83
2022/03/02 23:31:22;;;;;;;;;;;;;;;3.11;73.83496;102250.5;;;;-82
2022/03/02 23:35:40;;;;;;;17.9;7.7;;;;;;;;;;;;;-83
2022/03/02 23:36:13;;;;;;;;;;;;;;;3.09;73.875;102243.1;;;;-84
2022/03/02 23:41:15;;;;;;;;;;;;;;;3.03;73.69141;102241.3;;;;-83
2022/03/02 23:46:13;;;;;;;;;;;;;;;2.99;73.8252;102240.7;;;;-83
2022/03/02 23:51:15;;;;;;;;;;;;;;;2.98;73.93262;102237.8;;;;-83
2022/03/02 23:56:14;;;;;;;;;;;;;;;2.93;73.95801;102230;;;;-84
